createdAt,value
2022-08-26T00:00:48.783Z,101632.44
2022-08-26T00:03:17.045Z,101580.00
2022-08-26T00:05:45.742Z,101644.69
2022-08-26T00:08:14.837Z,101647.25
2022-08-26T00:10:42.483Z,101628.94
2022-08-26T00:13:10.844Z,101618.06
2022-08-26T00:15:39.212Z,101615.94
2022-08-26T00:18:21.974Z,101532.47
2022-08-26T00:20:49.914Z,101543.72
2022-08-26T00:23:16.502Z,101573.13
2022-08-26T00:25:43.278Z,101637.75
2022-08-26T00:28:12.471Z,101576.00
2022-08-26T00:30:41.458Z,101627.03
2022-08-26T00:33:08.891Z,101605.53
2022-08-26T00:35:36.208Z,101614.78
2022-08-26T00:38:03.579Z,101601.88
2022-08-26T00:40:37.526Z,101594.81
2022-08-26T00:43:09.326Z,101652.16
2022-08-26T00:45:48.214Z,101617.09
2022-08-26T00:48:18.264Z,101560.13
2022-08-26T00:50:57.858Z,101657.25
2022-08-26T00:53:30.468Z,101609.16
2022-08-26T00:56:06.025Z,101635.94
2022-08-26T00:58:33.595Z,101624.47
2022-08-26T01:01:00.889Z,101640.09
2022-08-26T01:03:30.802Z,101645.56
2022-08-26T01:05:59.056Z,101639.25
2022-08-26T01:08:26.226Z,101604.53
2022-08-26T01:10:57.442Z,101617.09
2022-08-26T01:13:25.051Z,101550.94
2022-08-26T01:15:55.021Z,101581.66
2022-08-26T01:18:22.444Z,101536.63
2022-08-26T01:20:57.694Z,101572.81
2022-08-26T01:23:28.733Z,101580.69
2022-08-26T01:26:07.509Z,101602.78
2022-08-26T01:28:50.613Z,101623.53
2022-08-26T01:31:22.399Z,101575.56
2022-08-26T01:34:12.154Z,101621.97
2022-08-26T01:36:39.868Z,101601.38
2022-08-26T01:39:08.055Z,101569.59
2022-08-26T01:41:36.004Z,101497.53
2022-08-26T01:44:05.685Z,101598.06
2022-08-26T01:46:33.069Z,101629.50
2022-08-26T01:49:02.904Z,101646.56
2022-08-26T01:51:35.939Z,101581.75
2022-08-26T01:54:06.038Z,101650.59
2022-08-26T01:56:36.696Z,101628.16
2022-08-26T01:59:08.525Z,101627.31
2022-08-26T02:01:37.196Z,101608.53
2022-08-26T02:04:25.874Z,101657.19
2022-08-26T02:06:53.568Z,101624.59
2022-08-26T02:09:21.388Z,101653.06
2022-08-26T02:11:48.603Z,101609.19
2022-08-26T02:14:26.744Z,101652.72
2022-08-26T02:16:54.756Z,101641.00
2022-08-26T02:19:31.763Z,101667.34
2022-08-26T02:22:02.684Z,101614.50
2022-08-26T02:24:47.015Z,101641.22
2022-08-26T02:27:14.822Z,101549.47
2022-08-26T02:29:45.403Z,101640.75
2022-08-26T02:32:11.921Z,101579.25
2022-08-26T02:34:40.639Z,101645.13
2022-08-26T02:37:10.311Z,101625.22
2022-08-26T02:39:39.780Z,101657.19
2022-08-26T02:42:06.724Z,101653.53
2022-08-26T02:44:33.599Z,101628.72
2022-08-26T02:47:00.459Z,101681.00
2022-08-26T02:49:27.702Z,101683.69
2022-08-26T02:51:54.394Z,101602.31
2022-08-26T02:54:21.610Z,101642.88
2022-08-26T02:56:48.916Z,101570.25
2022-08-26T02:59:15.445Z,101519.00
2022-08-26T03:01:42.350Z,101596.72
2022-08-26T03:04:10.972Z,101613.88
2022-08-26T03:06:38.851Z,101647.03
2022-08-26T03:09:07.795Z,101669.38
2022-08-26T03:11:34.350Z,101578.88
2022-08-26T03:14:03.372Z,101635.16
2022-08-26T03:16:35.338Z,101607.09
2022-08-26T03:19:04.077Z,101652.34
2022-08-26T03:21:31.051Z,101667.22
2022-08-26T03:23:58.746Z,101653.63
2022-08-26T03:26:26.554Z,101667.94
2022-08-26T03:28:54.088Z,101580.50
2022-08-26T03:31:20.718Z,101623.78
2022-08-26T03:33:51.150Z,101648.41
2022-08-26T03:36:19.062Z,101663.50
2022-08-26T03:38:45.929Z,101665.84
2022-08-26T03:41:12.445Z,101571.34
2022-08-26T03:43:39.660Z,101535.38
2022-08-26T03:46:12.103Z,101570.91
2022-08-26T03:48:39.644Z,101619.16
2022-08-26T03:51:13.943Z,101657.97
2022-08-26T03:53:45.808Z,101657.41
2022-08-26T03:56:12.670Z,101666.50
2022-08-26T03:58:39.596Z,101613.59
2022-08-26T04:01:09.499Z,101612.63
2022-08-26T04:03:35.946Z,101663.81
2022-08-26T04:06:02.450Z,101604.69
2022-08-26T04:08:28.942Z,101660.88
2022-08-26T04:10:55.459Z,101594.34
2022-08-26T04:13:21.996Z,101634.38
2022-08-26T04:15:49.077Z,101640.31
2022-08-26T04:18:16.071Z,101546.19
2022-08-26T04:20:45.479Z,101554.06
2022-08-26T04:23:11.906Z,101670.66
2022-08-26T04:25:38.333Z,101544.22
2022-08-26T04:28:07.042Z,101655.44
2022-08-26T04:30:37.565Z,101614.03
2022-08-26T04:33:04.348Z,101642.13
2022-08-26T04:35:39.646Z,101669.31
2022-08-26T04:38:10.348Z,101660.88
2022-08-26T04:40:37.070Z,101629.53
2022-08-26T04:43:05.531Z,101650.06
2022-08-26T04:45:32.019Z,101561.56
2022-08-26T04:47:58.474Z,101643.88
2022-08-26T04:50:25.278Z,101629.53
2022-08-26T04:52:51.725Z,101658.34
2022-08-26T04:55:18.522Z,101605.38
2022-08-26T04:57:46.343Z,101677.09
2022-08-26T05:00:13.165Z,101576.66
2022-08-26T05:02:40.172Z,101657.81
2022-08-26T05:05:07.639Z,101664.22
2022-08-26T05:07:35.149Z,101599.84
2022-08-26T05:10:03.401Z,101672.81
2022-08-26T05:12:30.488Z,101612.75
2022-08-26T05:14:57.168Z,101681.25
2022-08-26T05:17:23.977Z,101599.06
2022-08-26T05:19:50.477Z,101607.84
2022-08-26T05:22:17.391Z,101577.19
2022-08-26T05:24:44.938Z,101651.91
2022-08-26T05:27:12.524Z,101604.09
2022-08-26T05:29:40.226Z,101678.44
2022-08-26T05:32:07.066Z,101599.00
2022-08-26T05:34:33.745Z,101664.38
2022-08-26T05:37:00.203Z,101597.56
2022-08-26T05:39:26.679Z,101644.28
2022-08-26T05:41:53.138Z,101652.84
2022-08-26T05:44:19.622Z,101616.38
2022-08-26T05:46:46.310Z,101702.69
2022-08-26T05:49:14.382Z,101692.44
2022-08-26T05:51:44.468Z,101611.66
2022-08-26T05:54:10.954Z,101634.47
2022-08-26T05:56:38.648Z,101662.00
2022-08-26T05:59:06.023Z,101678.72
2022-08-26T06:01:41.207Z,101646.78
2022-08-26T06:04:07.823Z,101690.53
2022-08-26T06:06:36.734Z,101586.41
2022-08-26T06:09:05.803Z,101700.28
2022-08-26T06:11:32.747Z,101658.06
2022-08-26T06:14:03.958Z,101665.09
2022-08-26T06:16:32.237Z,101694.84
2022-08-26T06:18:58.828Z,101710.53
2022-08-26T06:21:32.620Z,101707.44
2022-08-26T06:24:02.314Z,101725.13
2022-08-26T06:26:29.581Z,101659.44
2022-08-26T06:28:56.408Z,101701.56
2022-08-26T06:31:23.811Z,101699.22
2022-08-26T06:33:50.988Z,101681.22
2022-08-26T06:36:23.428Z,101615.97
2022-08-26T06:38:52.000Z,101662.06
2022-08-26T06:41:20.955Z,101689.59
2022-08-26T06:43:49.145Z,101699.53
2022-08-26T06:46:19.202Z,101704.69
2022-08-26T06:48:46.418Z,101752.28
2022-08-26T06:51:16.687Z,101744.31
2022-08-26T06:53:45.301Z,101665.38
2022-08-26T06:56:12.032Z,101702.50
2022-08-26T06:58:40.589Z,101735.75
2022-08-26T07:01:25.730Z,101664.72
2022-08-26T07:03:54.610Z,101736.78
2022-08-26T07:06:24.195Z,101703.91
2022-08-26T07:08:54.011Z,101653.22
2022-08-26T07:11:21.069Z,101738.22
2022-08-26T07:13:47.959Z,101737.09
2022-08-26T07:16:19.703Z,101740.09
2022-08-26T07:18:47.359Z,101698.97
2022-08-26T07:21:16.258Z,101742.53
2022-08-26T07:23:44.862Z,101711.94
2022-08-26T07:26:15.226Z,101723.78
2022-08-26T07:28:43.052Z,101716.88
2022-08-26T07:31:12.655Z,101733.66
2022-08-26T07:33:39.514Z,101732.66
2022-08-26T07:36:08.950Z,101722.03
2022-08-26T07:38:37.245Z,101728.50
2022-08-26T07:41:04.006Z,101728.75
2022-08-26T07:43:31.050Z,101668.44
2022-08-26T07:45:58.136Z,101639.31
2022-08-26T07:48:24.857Z,101728.59
2022-08-26T07:50:51.417Z,101635.94
2022-08-26T07:53:21.245Z,101700.16
2022-08-26T07:55:49.122Z,101679.84
2022-08-26T07:58:17.203Z,101718.75
2022-08-26T08:00:44.621Z,101652.19
2022-08-26T08:03:11.345Z,101652.13
2022-08-26T08:05:38.462Z,101584.06
2022-08-26T08:08:27.326Z,101732.44
2022-08-26T08:10:56.480Z,101644.69
2022-08-26T08:13:23.628Z,101671.69
2022-08-26T08:15:50.414Z,101640.22
2022-08-26T08:18:18.205Z,101619.72
2022-08-26T08:20:54.707Z,101642.88
2022-08-26T08:23:32.428Z,101689.03
2022-08-26T08:26:06.670Z,101617.50
2022-08-26T08:28:35.867Z,101755.59
2022-08-26T08:31:02.728Z,101671.78
2022-08-26T08:33:29.890Z,101679.75
2022-08-26T08:35:57.779Z,101745.78
2022-08-26T08:38:24.697Z,101717.66
2022-08-26T08:40:51.446Z,101734.34
2022-08-26T08:43:38.038Z,101718.28
2022-08-26T08:46:10.170Z,101730.69
2022-08-26T08:48:43.458Z,101675.50
2022-08-26T08:51:33.022Z,101742.13
2022-08-26T08:54:00.932Z,101752.84
2022-08-26T08:56:33.613Z,101682.50
2022-08-26T08:59:22.539Z,101764.41
2022-08-26T09:01:52.401Z,101770.47
2022-08-26T09:04:29.316Z,101776.75
2022-08-26T09:09:36.316Z,101733.06
2022-08-26T09:12:04.082Z,101712.84
2022-08-26T09:14:31.731Z,101707.78
2022-08-26T09:17:21.486Z,101724.09
2022-08-26T09:19:54.285Z,101769.97
2022-08-26T09:22:32.488Z,101755.56
2022-08-26T09:25:00.996Z,101664.31
2022-08-26T09:27:46.967Z,101747.44
2022-08-26T09:30:30.895Z,101744.19
2022-08-26T09:33:11.154Z,101703.53
2022-08-26T09:35:43.571Z,101713.63
2022-08-26T09:38:26.887Z,101730.59
2022-08-26T09:41:00.495Z,101717.47
2022-08-26T09:43:27.668Z,101680.59
2022-08-26T09:46:10.272Z,101652.25
2022-08-26T09:48:40.528Z,101647.41
2022-08-26T09:51:28.072Z,101706.19
2022-08-26T09:54:00.093Z,101672.72
2022-08-26T09:56:29.915Z,101659.88
2022-08-26T09:58:57.091Z,101721.72
2022-08-26T10:01:23.570Z,101742.56
2022-08-26T10:03:50.848Z,101627.13
2022-08-26T10:06:17.604Z,101749.47
2022-08-26T10:08:52.274Z,101758.50
2022-08-26T10:11:24.499Z,101750.84
2022-08-26T10:13:59.430Z,101749.56
2022-08-26T10:16:34.339Z,101751.47
2022-08-26T10:19:11.984Z,101746.16
2022-08-26T10:21:49.450Z,101712.13
2022-08-26T10:24:26.034Z,101738.44
2022-08-26T10:27:04.160Z,101677.38
2022-08-26T10:29:43.168Z,101664.31
2022-08-26T10:32:26.991Z,101706.69
2022-08-26T10:34:54.476Z,101589.50
2022-08-26T10:37:23.967Z,101732.66
2022-08-26T10:40:02.551Z,101716.31
2022-08-26T10:42:50.672Z,101654.19
2022-08-26T10:45:21.255Z,101727.28
2022-08-26T10:48:00.374Z,101685.81
2022-08-26T10:50:32.862Z,101728.19
2022-08-26T10:53:05.385Z,101739.56
2022-08-26T10:55:48.407Z,101698.44
2022-08-26T10:58:26.058Z,101681.78
2022-08-26T11:00:59.900Z,101743.84
2022-08-26T11:03:29.484Z,101681.53
2022-08-26T11:06:19.284Z,101725.38
2022-08-26T11:08:47.796Z,101689.28
2022-08-26T11:11:40.081Z,101735.03
2022-08-26T11:14:11.405Z,101726.97
2022-08-26T11:16:43.962Z,101702.50
2022-08-26T11:19:45.628Z,101678.31
2022-08-26T11:22:34.136Z,101731.41
2022-08-26T11:25:02.965Z,101674.97
2022-08-26T11:27:35.322Z,101738.47
2022-08-26T11:30:01.717Z,101737.13
2022-08-26T11:32:34.110Z,101740.13
2022-08-26T11:35:09.556Z,101659.59
2022-08-26T11:37:42.479Z,101668.31
2022-08-26T11:40:14.433Z,101731.56
2022-08-26T11:42:40.993Z,101678.41
2022-08-26T11:45:22.653Z,101715.44
2022-08-26T11:47:50.178Z,101648.13
2022-08-26T11:50:24.982Z,101740.75
2022-08-26T11:52:57.002Z,101685.09
2022-08-26T11:55:24.243Z,101646.94
2022-08-26T11:57:55.751Z,101709.75
2022-08-26T12:00:26.151Z,101732.22
2022-08-26T12:02:53.486Z,101692.81
2022-08-26T12:05:29.576Z,101728.47
2022-08-26T12:08:01.867Z,101671.09
2022-08-26T12:10:32.090Z,101723.16
2022-08-26T12:13:00.224Z,101656.16
2022-08-26T12:15:29.772Z,101717.03
2022-08-26T12:17:57.229Z,101698.03
2022-08-26T12:20:35.224Z,101731.88
2022-08-26T12:23:01.884Z,101734.47
2022-08-26T12:25:28.745Z,101617.09
2022-08-26T12:28:05.520Z,101725.47
2022-08-26T12:30:32.227Z,101721.53
2022-08-26T12:33:22.665Z,101727.34
2022-08-26T12:35:54.341Z,101713.75
2022-08-26T12:38:22.312Z,101698.69
2022-08-26T12:40:49.263Z,101632.56
2022-08-26T12:43:36.707Z,101739.06
2022-08-26T12:46:03.521Z,101715.03
2022-08-26T12:48:36.373Z,101740.25
2022-08-26T12:51:05.880Z,101716.41
2022-08-26T12:53:34.827Z,101689.91
2022-08-26T12:56:04.398Z,101690.28
2022-08-26T12:58:36.530Z,101668.06
2022-08-26T13:01:05.973Z,101736.69
2022-08-26T13:03:35.180Z,101734.34
2022-08-26T13:06:23.267Z,101731.91
2022-08-26T13:08:52.211Z,101717.06
2022-08-26T13:11:23.217Z,101670.84
2022-08-26T13:14:02.292Z,101715.44
2022-08-26T13:16:34.886Z,101697.75
2022-08-26T13:19:05.984Z,101730.53
2022-08-26T13:21:51.327Z,101704.69
2022-08-26T13:24:21.657Z,101718.09
2022-08-26T13:26:49.965Z,101727.16
2022-08-26T13:29:17.635Z,101697.41
2022-08-26T13:31:45.208Z,101728.75
2022-08-26T13:34:15.049Z,101727.28
2022-08-26T13:36:41.742Z,101727.44
2022-08-26T13:39:08.477Z,101646.06
2022-08-26T13:41:34.937Z,101658.19
2022-08-26T13:44:01.515Z,101630.88
2022-08-26T13:46:28.910Z,101716.47
2022-08-26T13:48:59.329Z,101692.94
2022-08-26T13:51:27.082Z,101700.75
2022-08-26T13:53:54.310Z,101678.16
2022-08-26T13:56:21.807Z,101719.72
2022-08-26T13:58:49.552Z,101675.91
2022-08-26T14:01:18.317Z,101718.69
2022-08-26T14:03:45.151Z,101693.72
2022-08-26T14:06:12.801Z,101715.00
2022-08-26T14:08:40.686Z,101694.44
2022-08-26T14:11:07.684Z,101688.59
2022-08-26T14:13:34.658Z,101671.88
2022-08-26T14:16:02.797Z,101672.94
2022-08-26T14:18:32.576Z,101622.56
2022-08-26T14:20:59.509Z,101679.03
2022-08-26T14:23:26.764Z,101613.44
2022-08-26T14:25:54.080Z,101680.31
2022-08-26T14:28:20.623Z,101657.72
2022-08-26T14:30:57.069Z,101634.72
2022-08-26T14:33:30.731Z,101693.66
2022-08-26T14:35:57.645Z,101688.09
2022-08-26T14:38:24.182Z,101652.28
2022-08-26T14:40:50.711Z,101646.38
2022-08-26T14:43:17.305Z,101613.69
2022-08-26T14:45:44.459Z,101637.91
2022-08-26T14:48:11.067Z,101650.91
2022-08-26T14:50:37.657Z,101577.88
2022-08-26T14:53:04.428Z,101607.81
2022-08-26T14:55:34.161Z,101643.81
2022-08-26T14:58:01.004Z,101586.81
2022-08-26T15:00:27.625Z,101630.03
2022-08-26T15:02:54.381Z,101596.19
2022-08-26T15:05:21.239Z,101630.41
2022-08-26T15:07:48.143Z,101601.47
2022-08-26T15:10:16.736Z,101597.22
2022-08-26T15:12:44.912Z,101678.53
2022-08-26T15:15:13.706Z,101613.94
2022-08-26T15:17:40.262Z,101617.63
2022-08-26T15:20:07.780Z,101588.50
2022-08-26T15:22:34.575Z,101655.38
2022-08-26T15:25:01.082Z,101648.50
2022-08-26T15:27:28.140Z,101548.41
2022-08-26T15:29:54.726Z,101486.00
2022-08-26T15:32:21.197Z,101640.22
2022-08-26T15:34:47.985Z,101675.78
2022-08-26T15:37:14.495Z,101623.47
2022-08-26T15:39:40.986Z,101614.53
2022-08-26T15:42:07.681Z,101615.63
2022-08-26T15:44:34.367Z,101616.72
2022-08-26T15:47:00.911Z,101643.44
2022-08-26T15:49:27.651Z,101590.03
2022-08-26T15:51:54.148Z,101587.28
2022-08-26T15:54:23.253Z,101657.16
2022-08-26T15:56:50.446Z,101595.19
2022-08-26T15:59:18.285Z,101626.13
2022-08-26T16:01:45.217Z,101660.22
2022-08-26T16:04:11.874Z,101594.59
2022-08-26T16:06:40.938Z,101621.22
2022-08-26T16:09:08.588Z,101604.25
2022-08-26T16:11:36.137Z,101633.72
2022-08-26T16:14:03.851Z,101641.31
2022-08-26T16:16:30.719Z,101637.19
2022-08-26T16:18:57.340Z,101593.91
2022-08-26T16:21:26.528Z,101616.81
2022-08-26T16:23:53.014Z,101604.13
2022-08-26T16:26:23.355Z,101587.34
2022-08-26T16:28:49.829Z,101636.78
2022-08-26T16:31:17.259Z,101653.34
2022-08-26T16:33:44.068Z,101624.81
2022-08-26T16:36:11.339Z,101620.50
2022-08-26T16:38:38.837Z,101645.06
2022-08-26T16:41:06.556Z,101617.84
2022-08-26T16:43:33.358Z,101549.19
2022-08-26T16:45:59.898Z,101592.44
2022-08-26T16:48:26.510Z,101642.88
2022-08-26T16:50:52.992Z,101607.44
2022-08-26T16:53:19.479Z,101600.53
2022-08-26T16:55:50.542Z,101598.91
2022-08-26T16:58:18.115Z,101621.19
2022-08-26T17:00:44.677Z,101634.44
2022-08-26T17:03:11.574Z,101654.84
2022-08-26T17:05:38.238Z,101600.38
2022-08-26T17:08:05.562Z,101617.44
2022-08-26T17:10:32.779Z,101655.47
2022-08-26T17:12:59.537Z,101599.56
2022-08-26T17:15:29.196Z,101582.28
2022-08-26T17:17:56.489Z,101614.66
2022-08-26T17:20:24.832Z,101644.06
2022-08-26T17:22:53.546Z,101655.63
2022-08-26T17:25:21.945Z,101594.59
2022-08-26T17:27:49.110Z,101605.16
2022-08-26T17:30:16.856Z,101644.03
2022-08-26T17:32:44.389Z,101629.63
2022-08-26T17:35:11.669Z,101635.78
2022-08-26T17:37:40.208Z,101579.34
2022-08-26T17:40:10.954Z,101633.59
2022-08-26T17:42:39.273Z,101616.16
2022-08-26T17:45:06.806Z,101601.56
2022-08-26T17:47:34.465Z,101582.44
2022-08-26T17:50:01.204Z,101653.81
2022-08-26T17:52:28.916Z,101688.22
2022-08-26T17:54:55.501Z,101604.47
2022-08-26T17:57:23.008Z,101662.78
2022-08-26T17:59:50.140Z,101574.03
2022-08-26T18:02:20.236Z,101605.56
2022-08-26T18:04:46.784Z,101619.16
2022-08-26T18:07:13.272Z,101638.50
2022-08-26T18:09:39.768Z,101647.88
2022-08-26T18:12:06.649Z,101665.91
2022-08-26T18:14:34.050Z,101567.19
2022-08-26T18:17:00.700Z,101624.66
2022-08-26T18:19:27.422Z,101680.88
2022-08-26T18:21:54.049Z,101564.88
2022-08-26T18:24:20.508Z,101671.34
2022-08-26T18:26:47.023Z,101585.91
2022-08-26T18:29:13.595Z,101601.94
2022-08-26T18:31:40.125Z,101641.56
2022-08-26T18:34:06.626Z,101624.75
2022-08-26T18:36:36.527Z,101639.03
2022-08-26T18:39:05.139Z,101615.19
2022-08-26T18:41:33.528Z,101685.97
2022-08-26T18:44:00.219Z,101689.25
2022-08-26T18:46:27.769Z,101687.75
2022-08-26T18:48:56.293Z,101639.59
2022-08-26T18:51:26.592Z,101586.28
2022-08-26T18:53:53.571Z,101632.22
2022-08-26T18:56:20.140Z,101691.50
2022-08-26T18:58:47.472Z,101706.72
2022-08-26T19:01:15.277Z,101710.63
2022-08-26T19:03:42.063Z,101706.47
2022-08-26T19:06:13.285Z,101672.84
2022-08-26T19:08:42.651Z,101659.31
2022-08-26T19:11:12.167Z,101601.22
2022-08-26T19:13:44.179Z,101674.13
2022-08-26T19:16:24.962Z,101690.84
2022-08-26T19:18:52.585Z,101682.19
2022-08-26T19:21:29.819Z,101619.16
2022-08-26T19:23:58.680Z,101716.44
2022-08-26T19:26:26.143Z,101704.94
2022-08-26T19:28:52.753Z,101656.13
2022-08-26T19:31:19.436Z,101669.91
2022-08-26T19:33:46.033Z,101653.75
2022-08-26T19:36:16.045Z,101703.94
2022-08-26T19:38:42.687Z,101670.00
2022-08-26T19:41:18.703Z,101682.75
2022-08-26T19:43:46.129Z,101716.31
2022-08-26T19:46:21.641Z,101733.72
2022-08-26T19:48:51.813Z,101711.97
2022-08-26T19:51:25.852Z,101699.34
2022-08-26T19:53:54.364Z,101739.56
2022-08-26T19:56:22.059Z,101680.44
2022-08-26T19:58:50.005Z,101655.88
2022-08-26T20:03:58.364Z,101676.59
2022-08-26T20:06:24.959Z,101658.34
2022-08-26T20:08:52.114Z,101644.56
2022-08-26T20:11:22.666Z,101714.94
2022-08-26T20:13:49.250Z,101666.63
2022-08-26T20:16:16.844Z,101752.53
2022-08-26T20:18:44.527Z,101715.63
2022-08-26T20:21:11.583Z,101701.41
2022-08-26T20:23:38.419Z,101704.19
2022-08-26T20:26:05.435Z,101694.75
2022-08-26T20:28:32.855Z,101679.94
2022-08-26T20:31:00.162Z,101724.53
2022-08-26T20:33:26.673Z,101726.47
2022-08-26T20:35:53.363Z,101749.09
2022-08-26T20:38:21.610Z,101727.75
2022-08-26T20:40:49.043Z,101689.00
2022-08-26T20:43:15.507Z,101721.03
2022-08-26T20:45:42.066Z,101645.81
2022-08-26T20:48:08.652Z,101690.25
2022-08-26T20:50:35.425Z,101761.69
2022-08-26T20:53:01.961Z,101700.25
2022-08-26T20:55:28.512Z,101691.63
2022-08-26T20:57:55.043Z,101738.16
2022-08-26T21:00:21.668Z,101751.94
2022-08-26T21:02:50.438Z,101738.50
2022-08-26T21:05:18.478Z,101743.06
2022-08-26T21:07:45.561Z,101741.59
2022-08-26T21:10:12.891Z,101720.47
2022-08-26T21:12:39.373Z,101760.22
2022-08-26T21:15:06.631Z,101755.59
2022-08-26T21:17:33.869Z,101742.81
2022-08-26T21:20:00.363Z,101742.31
2022-08-26T21:22:26.875Z,101680.94
2022-08-26T21:24:53.893Z,101645.56
2022-08-26T21:27:23.169Z,101692.66
2022-08-26T21:29:53.025Z,101763.25
2022-08-26T21:32:19.509Z,101727.34
2022-08-26T21:34:45.963Z,101710.22
2022-08-26T21:37:15.270Z,101747.84
2022-08-26T21:39:43.553Z,101675.16
2022-08-26T21:42:10.043Z,101747.91
2022-08-26T21:44:36.530Z,101731.03
2022-08-26T21:47:03.075Z,101761.09
2022-08-26T21:49:29.567Z,101751.41
2022-08-26T21:51:56.027Z,101730.59
2022-08-26T21:54:22.445Z,101719.34
2022-08-26T21:56:49.411Z,101756.06
2022-08-26T21:59:18.765Z,101711.22
2022-08-26T22:01:45.694Z,101743.00
2022-08-26T22:04:12.258Z,101743.00
2022-08-26T22:06:48.371Z,101685.41
2022-08-26T22:09:20.196Z,101762.41
2022-08-26T22:11:48.041Z,101677.19
2022-08-26T22:14:16.635Z,101766.53
2022-08-26T22:16:44.473Z,101740.44
2022-08-26T22:19:17.323Z,101666.97
2022-08-26T22:21:44.145Z,101743.19
2022-08-26T22:24:10.648Z,101765.63
2022-08-26T22:26:37.068Z,101731.22
2022-08-26T22:29:04.668Z,101771.13
2022-08-26T22:31:37.648Z,101700.63
2022-08-26T22:34:12.075Z,101632.75
2022-08-26T22:36:43.787Z,101788.78
2022-08-26T22:39:11.558Z,101777.75
2022-08-26T22:41:38.014Z,101721.56
2022-08-26T22:44:04.518Z,101741.72
2022-08-26T22:46:31.037Z,101786.53
2022-08-26T22:48:57.509Z,101789.50
2022-08-26T22:51:24.000Z,101713.06
2022-08-26T22:53:50.584Z,101779.13
2022-08-26T22:56:17.972Z,101736.34
2022-08-26T22:58:44.768Z,101766.63
2022-08-26T23:01:11.416Z,101779.56
2022-08-26T23:03:37.982Z,101783.66
2022-08-26T23:06:08.874Z,101751.72
2022-08-26T23:08:35.502Z,101733.13
2022-08-26T23:11:02.313Z,101765.06
2022-08-26T23:13:28.797Z,101683.13
2022-08-26T23:16:04.062Z,101759.41
2022-08-26T23:18:30.610Z,101698.50
2022-08-26T23:20:57.184Z,101761.56
2022-08-26T23:23:24.567Z,101768.28
2022-08-26T23:25:51.283Z,101734.31
2022-08-26T23:28:17.917Z,101735.94
2022-08-26T23:30:44.391Z,101758.41
2022-08-26T23:33:10.911Z,101701.97
2022-08-26T23:35:37.348Z,101744.56
2022-08-26T23:38:06.637Z,101715.66
2022-08-26T23:40:36.899Z,101766.63
2022-08-26T23:43:06.583Z,101699.66
2022-08-26T23:45:34.129Z,101732.84
2022-08-26T23:48:01.283Z,101748.72
2022-08-26T23:50:30.199Z,101697.72
2022-08-26T23:52:56.702Z,101765.81
2022-08-26T23:55:23.258Z,101692.88
2022-08-26T23:57:50.056Z,101752.78
